Time;durP1;ratioP1;P1;durP2;ratioP2;P2;SDS_P1;SDS_P2;PMS_P1;PMS_P2;Temp;Humidity;BMP_temperature;BMP_pressure;BME280_temperature;BME280_humidity;BME280_pressure;Samples;Min_cycle;Max_cycle;Signal;HPM_P1;HPM_P2
2022/08/25 00:05:56;;;;;;;23.42;5.97;;;;;;;18.00;100.00;99303.22;4347648;80;21035;-85
2022/08/25 00:11:59;;;;;;;15.48;5.90;;;;;;;17.95;100.00;99300.31;4264112;80;21022;-84
2022/08/25 00:18:00;;;;;;;16.52;6.85;;;;;;;17.88;100.00;99296.27;4250872;82;21479;-85
2022/08/25 00:24:03;;;;;;;15.28;5.85;;;;;;;17.86;100.00;99303.41;4249934;82;21635;-85
2022/08/25 00:30:06;;;;;;;15.32;6.12;;;;;;;17.80;100.00;99307.84;4245489;82;21677;-86
2022/08/25 00:36:11;;;;;;;11.53;5.87;;;;;;;17.74;100.00;99310.89;4250018;82;21019;-86
2022/08/25 00:42:12;;;;;;;15.03;5.50;;;;;;;17.66;100.00;99311.59;4243978;82;20991;-85
2022/08/25 00:48:13;;;;;;;12.63;6.22;;;;;;;17.55;100.00;99303.21;4243776;82;21043;-85
2022/08/25 00:54:26;;;;;;;15.53;5.72;;;;;;;17.52;100.00;99297.92;4248032;82;21039;-85
2022/08/25 01:00:35;;;;;;;18.82;5.67;;;;;;;17.48;100.00;99295.77;4244320;82;21140;-84
2022/08/25 01:06:48;;;;;;;12.78;5.47;;;;;;;17.39;100.00;99295.46;4250376;82;21421;-85
2022/08/25 01:12:54;;;;;;;15.32;5.35;;;;;;;17.38;100.00;99300.03;4359089;79;21868;-85
2022/08/25 01:18:58;;;;;;;13.25;5.78;;;;;;;17.31;100.00;99297.32;4392394;78;21187;-85
2022/08/25 01:25:06;;;;;;;11.28;5.50;;;;;;;17.28;100.00;99298.95;4394586;79;20990;-84
2022/08/25 01:31:10;;;;;;;17.05;7.45;;;;;;;17.26;100.00;99295.80;4398844;79;21070;-85
2022/08/25 01:37:15;;;;;;;13.65;6.70;;;;;;;17.19;100.00;99282.82;4389255;78;20996;-85
2022/08/25 01:43:33;;;;;;;17.65;6.28;;;;;;;17.12;100.00;99280.15;4377993;79;21030;-85
2022/08/25 01:49:35;;;;;;;19.07;7.55;;;;;;;17.07;100.00;99278.41;4371204;79;21478;-85
2022/08/25 01:56:00;;;;;;;11.48;5.33;;;;;;;17.01;100.00;99274.53;4368274;79;21023;-84
2022/08/25 02:01:56;;;;;;;16.30;5.58;;;;;;;16.98;100.00;99267.85;4360935;79;20981;-85
2022/08/25 02:07:58;;;;;;;13.03;6.70;;;;;;;16.94;100.00;99274.62;4366935;79;21090;-84
2022/08/25 02:14:00;;;;;;;16.45;5.33;;;;;;;16.91;100.00;99265.14;4364913;79;21092;-85
2022/08/25 02:20:07;;;;;;;13.43;6.00;;;;;;;16.88;100.00;99261.05;4282822;82;21036;-83
2022/08/25 02:26:09;;;;;;;;;;;;;;;16.90;100.00;99256.67;4371944;79;21055;-85
2022/08/25 02:32:10;;;;;;;17.55;5.95;;;;;;;16.96;100.00;99250.88;4362528;80;20140;-85
2022/08/25 02:38:12;;;;;;;15.23;5.53;;;;;;;16.98;100.00;99254.61;4279278;82;21021;-85
2022/08/25 02:44:13;;;;;;;19.32;6.33;;;;;;;17.02;100.00;99260.29;4337267;79;20968;-84
2022/08/25 02:50:15;;;;;;;15.38;5.55;;;;;;;17.10;100.00;99261.78;4365268;79;21065;-84
2022/08/25 02:56:18;;;;;;;12.85;6.12;;;;;;;17.09;100.00;99254.70;4362791;78;21024;-84
2022/08/25 03:02:19;;;;;;;16.17;6.75;;;;;;;17.12;100.00;99254.45;4366141;79;21058;-84
2022/08/25 03:08:21;;;;;;;19.85;6.85;;;;;;;16.95;100.00;99253.46;4372210;79;21043;-84
2022/08/25 03:14:22;;;;;;;9.85;5.87;;;;;;;17.00;100.00;99248.08;4368746;79;21041;-84
2022/08/25 03:20:26;;;;;;;11.57;5.65;;;;;;;16.98;100.00;99247.11;4371921;79;20992;-84
2022/08/25 03:32:48;;;;;;;11.65;5.60;;;;;;;16.78;100.00;99238.43;4364146;79;21068;-84
2022/08/25 03:38:50;;;;;;;13.03;5.80;;;;;;;16.70;100.00;99247.39;4360522;79;21518;-84
2022/08/25 03:44:51;;;;;;;10.98;5.72;;;;;;;16.63;100.00;99243.30;4365313;79;21495;-84
2022/08/25 03:50:53;;;;;;;11.93;5.40;;;;;;;16.54;100.00;99235.30;4365676;79;21008;-84
2022/08/25 03:56:55;;;;;;;12.85;4.92;;;;;;;16.46;100.00;99233.81;4376121;79;20948;-84
2022/08/25 04:02:57;;;;;;;10.35;5.47;;;;;;;16.45;100.00;99238.55;4373811;79;20989;-84
2022/08/25 04:08:59;;;;;;;11.03;5.65;;;;;;;16.50;100.00;99238.70;4324511;79;21032;-83
2022/08/25 04:15:01;;;;;;;14.63;6.20;;;;;;;16.48;100.00;99228.64;4378194;78;21378;-84
2022/08/25 04:21:07;;;;;;;13.20;6.37;;;;;;;16.60;100.00;99230.30;4371040;79;20972;-83
2022/08/25 04:27:09;;;;;;;14.18;7.78;;;;;;;16.67;100.00;99237.16;4356131;79;21078;-83
2022/08/25 04:33:11;;;;;;;12.80;7.40;;;;;;;16.73;100.00;99239.66;4280970;81;21496;-85
2022/08/25 04:39:13;;;;;;;11.28;7.47;;;;;;;16.77;100.00;99243.78;4327050;79;21000;-83
2022/08/25 04:45:15;;;;;;;11.00;7.95;;;;;;;16.83;100.00;99249.84;4359816;79;21000;-83
2022/08/25 04:51:24;;;;;;;11.78;6.83;;;;;;;16.84;100.00;99242.31;4371935;79;21043;-84
2022/08/25 04:57:26;;;;;;;7.92;6.67;;;;;;;16.95;100.00;99244.38;4373774;79;21036;-83
2022/08/25 05:03:31;;;;;;;12.80;7.03;;;;;;;17.07;100.00;99238.31;4253613;82;21052;-84
2022/08/25 05:09:33;;;;;;;11.73;7.00;;;;;;;17.15;100.00;99243.95;4209416;82;21045;-84
2022/08/25 05:15:50;;;;;;;10.10;6.50;;;;;;;17.26;100.00;99235.55;4367167;79;21038;-84
2022/08/25 05:21:53;;;;;;;11.00;7.45;;;;;;;17.38;100.00;99239.15;4370049;79;21947;-84
2022/08/25 05:27:57;;;;;;;10.45;7.45;;;;;;;17.48;100.00;99235.50;4361855;79;20990;-84
2022/08/25 05:33:59;;;;;;;10.68;6.95;;;;;;;17.55;100.00;99228.48;4282150;81;20982;-83
2022/08/25 05:40:01;;;;;;;9.48;6.53;;;;;;;17.60;100.00;99221.11;4226043;82;21083;-84
2022/08/25 05:46:03;;;;;;;13.38;7.25;;;;;;;17.73;100.00;99235.96;4227134;81;21094;-84
2022/08/25 05:52:04;;;;;;;12.43;8.40;;;;;;;17.83;100.00;99234.42;4222741;82;20993;-84
2022/08/25 05:58:05;;;;;;;17.77;7.92;;;;;;;17.99;100.00;99229.64;4223240;82;21549;-84
2022/08/25 06:04:07;;;;;;;14.58;9.28;;;;;;;18.15;100.00;99232.56;4226954;81;20968;-84
2022/08/25 06:10:12;;;;;;;15.53;9.00;;;;;;;18.31;100.00;99226.55;4222423;82;21466;-85
2022/08/25 06:16:13;;;;;;;16.10;10.50;;;;;;;18.47;100.00;99233.64;4342810;79;21499;-85
2022/08/25 06:22:15;;;;;;;21.62;8.98;;;;;;;18.68;100.00;99224.94;4362723;79;20984;-84
2022/08/25 06:28:17;;;;;;;15.50;9.60;;;;;;;18.94;100.00;99228.84;4359007;79;21038;-85
2022/08/25 06:34:19;;;;;;;18.07;8.38;;;;;;;19.23;100.00;99234.01;4284581;81;21948;-85
2022/08/25 06:40:21;;;;;;;17.73;8.68;;;;;;;19.49;100.00;99243.44;4372700;79;21059;-85
2022/08/25 06:46:26;;;;;;;15.45;8.53;;;;;;;19.65;100.00;99235.96;4366458;79;22126;-85
2022/08/25 06:52:27;;;;;;;22.22;8.08;;;;;;;19.88;100.00;99240.00;4380971;79;20982;-85
2022/08/25 06:58:31;;;;;;;21.02;7.80;;;;;;;20.12;100.00;99240.02;4403599;78;21498;-85
2022/08/25 07:04:35;;;;;;;20.77;7.40;;;;;;;20.32;100.00;99230.86;4406095;78;20976;-85
2022/08/25 07:10:36;;;;;;;19.95;7.78;;;;;;;20.45;100.00;99236.70;4305735;80;21032;-85
2022/08/25 07:16:39;;;;;;;17.35;6.92;;;;;;;20.68;100.00;99235.72;4361372;79;21092;-85
2022/08/25 07:22:41;;;;;;;13.15;7.78;;;;;;;20.84;100.00;99231.53;4373920;79;21027;-86
2022/08/25 07:28:43;;;;;;;20.52;6.83;;;;;;;21.00;100.00;99232.29;4368225;79;20957;-85
2022/08/25 07:41:07;;;;;;;24.20;8.28;;;;;;;21.55;100.00;99240.88;4371806;79;21016;-85
2022/08/25 07:47:10;;;;;;;28.38;7.83;;;;;;;21.90;100.00;99247.43;4376941;79;21405;-85
2022/08/25 07:53:13;;;;;;;17.50;6.85;;;;;;;22.30;100.00;99249.33;4367061;79;21029;-86
2022/08/25 07:59:14;;;;;;;19.27;7.37;;;;;;;22.71;100.00;99238.64;4350441;79;21003;-85
2022/08/25 08:05:18;;;;;;;24.50;6.75;;;;;;;22.66;100.00;99230.23;4370796;79;21457;-86
2022/08/25 08:11:33;;;;;;;22.10;7.53;;;;;;;22.96;100.00;99230.19;4370992;79;20999;-85
2022/08/25 08:17:35;;;;;;;27.42;7.03;;;;;;;23.36;100.00;99235.37;4370030;79;21024;-85
2022/08/25 08:23:37;;;;;;;20.40;6.03;;;;;;;23.70;100.00;99226.10;4377120;79;21010;-86
2022/08/25 08:29:40;;;;;;;21.73;6.35;;;;;;;23.90;100.00;99228.70;4283796;81;21632;-85
2022/08/25 08:35:42;;;;;;;19.17;6.90;;;;;;;23.80;100.00;99231.30;4220995;82;20964;-85
2022/08/25 08:42:34;;;;;;;20.57;6.85;;;;;;;23.92;100.00;99222.64;4234722;81;21463;-85
2022/08/25 08:48:54;;;;;;;27.50;6.03;;;;;;;24.19;100.00;99226.38;4235491;81;21016;-85
2022/08/25 08:55:01;;;;;;;27.87;6.67;;;;;;;24.47;100.00;99196.45;4217894;82;21037;-86
2022/08/25 09:01:02;;;;;;;21.15;6.58;;;;;;;24.90;100.00;99217.21;4231775;81;20996;-84
2022/08/25 09:07:27;;;;;;;26.42;5.72;;;;;;;25.11;97.38;99217.70;4237249;81;21070;-86
2022/08/25 09:13:45;;;;;;;28.20;7.35;;;;;;;25.22;99.96;99213.02;4357293;79;21062;-86
2022/08/25 09:20:01;;;;;;;24.02;7.28;;;;;;;25.37;99.61;99184.56;4372911;79;21463;-85
2022/08/25 09:26:20;;;;;;;26.97;6.05;;;;;;;25.99;98.69;99220.08;4382880;79;20961;-86
2022/08/25 09:32:22;;;;;;;26.30;6.60;;;;;;;26.48;97.74;99209.86;4370898;79;20996;-86
2022/08/25 09:38:27;;;;;;;28.38;6.60;;;;;;;27.16;95.60;99198.13;4368808;79;20964;-85
2022/08/25 09:44:42;;;;;;;33.65;8.40;;;;;;;27.79;94.01;99198.93;4296864;81;20968;-86
2022/08/25 09:50:44;;;;;;;39.00;8.93;;;;;;;28.57;92.44;99197.49;4345070;79;22556;-86
2022/08/25 09:57:00;;;;;;;33.35;8.45;;;;;;;29.00;88.30;99197.14;4397732;79;20972;-86
2022/08/25 10:03:14;;;;;;;34.23;9.68;;;;;;;29.30;87.64;99191.49;4392541;79;21097;-86
2022/08/25 10:09:42;;;;;;;38.67;10.23;;;;;;;29.83;82.07;99181.89;4395954;79;21016;-87
2022/08/25 10:15:44;;;;;;;34.80;7.95;;;;;;;29.92;81.32;99176.67;4318020;81;21532;-87
2022/08/25 10:22:08;;;;;;;25.82;8.70;;;;;;;30.73;79.77;99176.30;4264865;81;21621;-87
2022/08/25 10:28:32;;;;;;;36.88;8.43;;;;;;;31.12;78.20;99168.75;4255670;81;21011;-87
2022/08/25 10:34:47;;;;;;;31.10;7.67;;;;;;;31.43;77.80;99153.69;4362698;79;20985;-86
2022/08/25 10:41:06;;;;;;;35.35;8.48;;;;;;;31.28;74.33;99151.05;4388110;79;21013;-86
2022/08/25 10:47:31;;;;;;;27.73;8.13;;;;;;;31.80;74.55;99142.88;4391151;79;21003;-86
2022/08/25 10:54:19;;;;;;;29.37;8.08;;;;;;;32.26;72.05;99135.25;4397185;79;20965;-86
2022/08/25 11:00:34;;;;;;;24.98;7.17;;;;;;;31.93;71.25;99121.94;4398644;79;21011;-86
2022/08/25 11:06:51;;;;;;;24.40;6.93;;;;;;;32.32;66.90;99116.18;4393690;79;20999;-86
2022/08/25 11:12:59;;;;;;;24.72;6.42;;;;;;;32.06;68.52;99108.66;4383894;79;21358;-86
2022/08/25 11:19:32;;;;;;;22.10;7.00;;;;;;;32.57;68.07;99116.50;4374450;79;20970;-87
2022/08/25 11:25:39;;;;;;;23.18;6.45;;;;;;;32.78;66.83;99104.95;4369822;79;20984;-86
2022/08/25 11:31:45;;;;;;;27.52;7.50;;;;;;;32.65;66.44;99102.70;4367534;79;21551;-86
2022/08/25 11:38:07;;;;;;;27.98;5.83;;;;;;;32.51;65.63;99091.04;4357413;79;21031;-88
2022/08/25 11:44:48;;;;;;;24.37;6.53;;;;;;;32.40;64.83;99095.97;4270294;81;21457;-86
2022/08/25 11:51:04;;;;;;;20.60;5.92;;;;;;;32.16;63.75;99092.28;4287368;81;21370;-85
2022/08/25 11:57:20;;;;;;;21.17;5.83;;;;;;;31.55;63.17;99085.91;4379006;79;21027;-87
2022/08/25 12:03:44;;;;;;;26.57;5.95;;;;;;;31.01;61.09;99085.33;4349706;79;21979;-87
2022/08/25 12:10:06;;;;;;;25.35;7.00;;;;;;;30.54;62.91;99069.24;4372512;79;21646;-87
2022/08/25 12:16:33;;;;;;;30.40;6.05;;;;;;;30.26;62.40;99070.55;4361601;79;20991;-88
2022/08/25 12:22:40;;;;;;;27.27;5.75;;;;;;;30.00;63.00;99073.34;4323615;79;21028;-87
2022/08/25 12:29:11;;;;;;;25.77;6.37;;;;;;;29.74;62.36;99064.20;4370769;79;20968;-86
2022/08/25 12:35:41;;;;;;;24.35;5.67;;;;;;;29.45;62.49;99066.66;4365416;79;21055;-85
2022/08/25 12:42:02;;;;;;;30.30;5.90;;;;;;;29.24;62.92;99055.97;4367707;79;20966;-87
2022/08/25 12:48:33;;;;;;;33.35;7.87;;;;;;;29.12;63.27;99048.67;4362973;79;20999;-86
2022/08/25 12:54:51;;;;;;;31.50;6.17;;;;;;;28.95;62.54;99043.65;4366411;79;20983;-87
2022/08/25 13:01:16;;;;;;;28.77;6.08;;;;;;;28.78;62.98;99034.27;4356922;79;21571;-85
2022/08/25 13:07:50;;;;;;;22.52;5.87;;;;;;;28.81;62.16;99029.04;4360575;79;21494;-87
2022/08/25 13:14:27;;;;;;;26.17;7.33;;;;;;;28.71;64.03;99025.45;4357926;79;21012;-86
2022/08/25 13:20:28;;;;;;;32.90;6.83;;;;;;;28.76;63.25;99030.38;4354318;79;21388;-86
2022/08/25 13:26:38;;;;;;;26.52;5.72;;;;;;;28.61;63.73;99029.06;4314034;79;21078;-86
2022/08/25 13:32:40;;;;;;;23.83;6.25;;;;;;;28.53;63.88;99022.34;4354404;79;21065;-87
2022/08/25 13:38:45;;;;;;;43.48;7.05;;;;;;;28.51;63.42;99019.87;4364771;79;20966;-86
2022/08/25 13:44:46;;;;;;;24.25;5.15;;;;;;;28.49;64.19;99022.39;4376135;79;21003;-86
2022/08/25 13:50:48;;;;;;;30.37;5.95;;;;;;;28.41;64.46;99013.59;4374330;79;20959;-87
2022/08/25 13:56:49;;;;;;;25.62;6.10;;;;;;;28.32;64.50;99018.59;4353830;79;21008;-87
2022/08/25 14:02:52;;;;;;;30.68;5.62;;;;;;;28.27;64.81;99015.85;4371207;79;21616;-87
2022/08/25 14:09:04;;;;;;;26.85;5.97;;;;;;;28.22;65.00;99010.17;4369682;79;21489;-85
2022/08/25 14:15:20;;;;;;;27.62;6.53;;;;;;;28.23;63.43;99008.27;4375087;79;21945;-87
2022/08/25 14:21:27;;;;;;;25.10;5.40;;;;;;;28.22;64.00;99004.55;4280729;81;21042;-87
2022/08/25 14:27:30;;;;;;;35.92;5.50;;;;;;;28.15;63.08;98997.92;4361799;79;20972;-87
2022/08/25 14:33:38;;;;;;;21.97;6.30;;;;;;;28.16;63.30;98991.05;4361694;79;21051;-86
2022/08/25 14:39:40;;;;;;;24.05;5.60;;;;;;;28.04;62.72;98991.53;4366324;79;21001;-88
2022/08/25 14:45:45;;;;;;;29.42;6.45;;;;;;;27.99;62.80;98978.16;4302605;81;21525;-86
2022/08/25 14:51:48;;;;;;;33.25;6.20;;;;;;;27.98;62.92;98969.59;4398991;79;21027;-85
2022/08/25 14:57:57;;;;;;;28.83;5.53;;;;;;;27.94;63.28;98971.08;4396254;78;21535;-87
2022/08/25 15:04:14;;;;;;;33.53;6.40;;;;;;;27.80;63.70;98971.23;4372016;79;21083;-86
2022/08/25 15:10:15;;;;;;;28.35;7.00;;;;;;;27.74;63.93;98977.42;4368815;79;21039;-87
2022/08/25 15:16:34;;;;;;;29.40;6.75;;;;;;;27.64;63.62;98974.62;4363546;79;21008;-86
2022/08/25 15:22:36;;;;;;;29.30;6.53;;;;;;;27.53;63.79;98981.48;4347845;79;20987;-87
2022/08/25 15:28:59;;;;;;;24.57;6.05;;;;;;;27.43;63.70;98974.43;4404933;79;20940;-87
2022/08/25 15:35:01;;;;;;;27.02;6.92;;;;;;;27.38;63.57;98974.49;4240136;81;21004;-87
2022/08/25 15:41:07;;;;;;;36.77;7.15;;;;;;;27.33;63.69;98980.02;4391196;79;20995;-87
2022/08/25 15:47:09;;;;;;;23.02;6.10;;;;;;;27.30;64.00;98978.19;4398242;78;21005;-87
2022/08/25 15:53:11;;;;;;;42.85;7.60;;;;;;;27.24;64.10;98965.44;4402881;78;20976;-86
2022/08/25 15:59:13;;;;;;;25.75;6.42;;;;;;;27.12;64.58;98958.73;4401549;79;21472;-85
2022/08/25 16:05:14;;;;;;;27.07;6.97;;;;;;;27.01;65.12;98955.13;4406804;79;20981;-88
2022/08/25 16:11:21;;;;;;;27.52;7.72;;;;;;;26.94;65.38;98956.13;4395043;79;21010;-87
2022/08/25 16:17:22;;;;;;;30.85;7.40;;;;;;;26.88;65.75;98955.27;4341541;79;20990;-86
2022/08/25 16:23:24;;;;;;;16.27;6.47;;;;;;;26.81;66.13;98956.42;4404646;79;20987;-86
2022/08/25 16:29:30;;;;;;;26.23;7.42;;;;;;;26.70;66.50;98956.23;4397142;78;20960;-86
2022/08/25 16:35:32;;;;;;;28.27;7.75;;;;;;;26.62;66.91;98962.09;4398897;79;21908;-86
2022/08/25 16:41:34;;;;;;;23.38;7.25;;;;;;;26.50;67.48;98969.39;4397825;78;21012;-86
2022/08/25 16:47:36;;;;;;;22.52;6.60;;;;;;;26.27;68.46;98970.20;4393425;78;21072;-86
2022/08/25 16:59:58;;;;;;;23.52;6.70;;;;;;;26.10;69.72;98972.08;4374575;79;21000;-86
2022/08/25 17:05:59;;;;;;;28.65;7.25;;;;;;;25.95;70.42;98974.02;4366237;79;21007;-87
2022/08/25 17:12:02;;;;;;;26.00;7.42;;;;;;;25.80;71.24;98967.59;4273041;79;9999566;-86
2022/08/25 17:18:04;;;;;;;35.43;8.03;;;;;;;25.60;72.29;98962.43;4396747;78;21031;-86
2022/08/25 17:24:07;;;;;;;25.40;8.20;;;;;;;25.45;72.94;98977.02;4359647;79;21522;-85
2022/08/25 17:30:09;;;;;;;26.15;8.30;;;;;;;25.31;73.60;98966.47;4403554;79;20966;-86
2022/08/25 17:36:11;;;;;;;28.38;8.63;;;;;;;25.13;74.45;98960.31;4401380;78;21508;-86
2022/08/25 17:42:13;;;;;;;32.90;8.80;;;;;;;24.92;75.23;98971.13;4398484;78;20971;-86
2022/08/25 17:48:15;;;;;;;22.30;9.03;;;;;;;24.75;76.21;98969.15;4394583;79;20984;-86
2022/08/25 17:54:17;;;;;;;31.45;9.40;;;;;;;24.61;77.19;98976.94;4396884;79;21010;-85
2022/08/25 18:00:21;;;;;;;24.00;8.85;;;;;;;24.46;78.02;98973.22;4395176;79;21014;-86
2022/08/25 18:06:24;;;;;;;34.33;10.03;;;;;;;24.21;78.78;98969.36;4398993;79;20958;-85
2022/08/25 18:12:26;;;;;;;22.75;7.97;;;;;;;24.00;79.59;98971.70;4391786;79;20992;-86
2022/08/25 18:18:30;;;;;;;22.98;9.48;;;;;;;23.75;80.22;98976.77;4389607;79;20955;-85
2022/08/25 18:24:34;;;;;;;26.52;9.20;;;;;;;23.44;81.22;98983.06;4395570;79;21550;-86
2022/08/25 18:30:39;;;;;;;29.80;9.38;;;;;;;23.29;81.79;98976.51;4394626;79;21464;-86
2022/08/25 18:36:41;;;;;;;26.57;8.55;;;;;;;23.16;82.34;98984.33;4407829;79;21026;-86
2022/08/25 18:42:42;;;;;;;23.98;9.40;;;;;;;23.03;83.04;98986.45;4303617;80;21047;-85
2022/08/25 18:48:44;;;;;;;29.75;10.15;;;;;;;22.90;83.58;98980.79;4258203;81;21039;-86
2022/08/25 18:54:45;;;;;;;20.82;9.35;;;;;;;22.68;84.23;98981.44;4252437;81;21059;-85
2022/08/25 19:00:47;;;;;;;28.47;10.82;;;;;;;22.53;84.79;98985.41;4266503;81;21067;-86
2022/08/25 19:06:49;;;;;;;25.08;11.70;;;;;;;22.29;85.56;98991.23;4256852;80;20995;-86
2022/08/25 19:12:52;;;;;;;27.13;12.35;;;;;;;22.19;86.23;98977.69;4263060;81;21609;-86
2022/08/25 19:18:53;;;;;;;26.65;11.33;;;;;;;22.07;86.82;98976.49;4269752;81;21980;-86
2022/08/25 19:24:55;;;;;;;30.70;12.13;;;;;;;21.87;87.34;98973.83;4401133;79;20957;-86
2022/08/25 19:30:57;;;;;;;31.40;12.40;;;;;;;21.76;88.10;98969.23;4394028;78;21074;-85
2022/08/25 19:37:00;;;;;;;23.98;10.60;;;;;;;21.64;88.72;98981.33;4395702;78;20972;-85
2022/08/25 19:43:05;;;;;;;26.42;10.08;;;;;;;21.46;89.25;98976.97;4393488;78;21471;-86
2022/08/25 19:49:25;;;;;;;19.32;10.53;;;;;;;21.33;89.77;98969.23;4401218;79;21012;-86
2022/08/25 19:55:26;;;;;;;27.58;11.63;;;;;;;21.17;90.44;98972.14;4377259;79;21027;-85
2022/08/25 20:01:27;;;;;;;28.42;12.03;;;;;;;21.10;91.17;98974.38;4393361;79;20999;-86
2022/08/25 20:07:30;;;;;;;27.42;11.90;;;;;;;21.00;91.58;98978.28;4393560;79;21047;-86
2022/08/25 20:13:32;;;;;;;25.20;12.30;;;;;;;20.79;91.74;98987.23;4398415;78;20990;-86
2022/08/25 20:19:33;;;;;;;34.85;12.75;;;;;;;20.65;92.36;98982.89;4410461;78;20974;-86
2022/08/25 20:25:37;;;;;;;28.17;13.68;;;;;;;20.54;92.95;98976.06;4399005;78;20981;-86
2022/08/25 20:31:39;;;;;;;17.30;9.23;;;;;;;20.43;93.61;98981.16;4393893;79;21008;-85
2022/08/25 20:37:43;;;;;;;31.93;13.18;;;;;;;20.34;94.39;98987.37;4393884;79;21204;-85
2022/08/25 20:43:45;;;;;;;22.02;12.15;;;;;;;20.25;94.78;98994.78;4393360;78;20995;-85
2022/08/25 20:49:48;;;;;;;29.45;12.65;;;;;;;20.19;95.01;98989.76;4391981;79;21521;-85
2022/08/25 20:55:49;;;;;;;31.93;14.70;;;;;;;20.03;95.26;98990.36;4398715;79;21023;-85
2022/08/25 21:01:52;;;;;;;30.10;13.95;;;;;;;19.96;95.71;98990.56;4399623;78;21029;-85
2022/08/25 21:07:53;;;;;;;26.50;13.68;;;;;;;19.84;95.58;98992.69;4401911;79;20982;-85
2022/08/25 21:13:56;;;;;;;21.00;11.60;;;;;;;19.70;96.51;98992.42;4389687;79;21034;-85
2022/08/25 21:19:58;;;;;;;28.35;13.20;;;;;;;19.51;96.08;98986.98;4373450;79;20999;-85
2022/08/25 21:25:59;;;;;;;32.88;14.87;;;;;;;19.43;96.95;98983.61;4370215;79;20962;-84
2022/08/25 21:32:01;;;;;;;19.45;12.45;;;;;;;19.40;97.51;98983.69;4362976;79;21043;-84
2022/08/25 21:38:02;;;;;;;24.87;13.55;;;;;;;19.28;97.63;98992.72;4370092;79;21011;-85
2022/08/25 21:44:05;;;;;;;29.10;13.53;;;;;;;19.22;98.24;98987.45;4362493;79;21468;-85
2022/08/25 21:50:10;;;;;;;27.17;15.38;;;;;;;19.12;98.64;98976.77;4381396;79;21068;-85
2022/08/25 21:56:16;;;;;;;36.58;12.47;;;;;;;19.10;98.84;98969.52;4362905;79;21415;-85
